Time;durP1;ratioP1;P1;durP2;ratioP2;P2;SDS_P1;SDS_P2;PMS_P1;PMS_P2;Temp;Humidity;BMP_temperature;BMP_pressure;BME280_temperature;BME280_humidity;BME280_pressure;Samples;Min_cycle;Max_cycle;Signal;HPM_P1;HPM_P2
2023/11/01 00:01:13;;;;;;;6.43;2.67;;;12.30;99.90;;;;;;5053296;28;20036;-83
2023/11/01 00:03:42;;;;;;;8.70;3.60;;;12.30;99.90;;;;;;5053686;28;20621;-82
2023/11/01 00:06:07;;;;;;;12.50;4.25;;;13.70;99.90;;;;;;5053722;28;20104;-83
2023/11/01 00:08:33;;;;;;;12.35;3.65;;;12.30;99.90;;;;;;5052914;28;20112;-83
2023/11/01 00:10:58;;;;;;;6.63;3.28;;;12.70;99.90;;;;;;5054094;28;20084;-83
2023/11/01 00:13:24;;;;;;;9.50;3.70;;;12.30;99.90;;;;;;5053936;28;20033;-83
2023/11/01 00:15:50;;;;;;;9.52;3.58;;;12.60;99.90;;;;;;5053379;28;20071;-83
2023/11/01 00:18:15;;;;;;;11.00;4.38;;;12.30;99.90;;;;;;5053969;28;20146;-83
2023/11/01 00:20:41;;;;;;;10.98;4.13;;;13.70;99.90;;;;;;5053357;28;20377;-82
2023/11/01 00:23:07;;;;;;;8.38;4.15;;;12.30;99.90;;;;;;5056765;28;20389;-83
2023/11/01 00:25:32;;;;;;;10.20;4.85;;;12.30;99.90;;;;;;5065856;28;20477;-83
2023/11/01 00:27:58;;;;;;;13.90;4.63;;;12.30;99.90;;;;;;5062424;28;20021;-83
2023/11/01 00:30:23;;;;;;;9.73;4.50;;;12.20;99.90;;;;;;5052922;28;20032;-83
2023/11/01 00:32:49;;;;;;;7.28;4.00;;;12.30;99.90;;;;;;5053642;28;20366;-83
2023/11/01 00:35:15;;;;;;;12.40;4.30;;;12.30;99.90;;;;;;5053758;28;20043;-83
2023/11/01 00:37:41;;;;;;;8.73;4.47;;;12.30;99.90;;;;;;5060420;28;20531;-83
2023/11/01 00:40:07;;;;;;;8.15;4.32;;;12.30;99.90;;;;;;5057664;28;20053;-84
2023/11/01 00:42:36;;;;;;;9.55;4.05;;;12.30;99.90;;;;;;5053432;28;20107;-83
2023/11/01 00:45:02;;;;;;;9.95;4.53;;;12.30;99.90;;;;;;5053245;28;20024;-85
2023/11/01 00:47:28;;;;;;;8.52;4.63;;;12.30;99.90;;;;;;5053379;28;20087;-83
2023/11/01 00:49:53;;;;;;;7.60;4.45;;;12.70;99.90;;;;;;5063544;28;20017;-84
2023/11/01 00:52:19;;;;;;;7.85;4.10;;;12.20;99.90;;;;;;5053969;28;20025;-84
2023/11/01 00:54:45;;;;;;;8.98;4.80;;;12.20;99.90;;;;;;5072170;28;20047;-83
2023/11/01 00:57:10;;;;;;;7.32;4.80;;;12.20;99.90;;;;;;5073324;28;20484;-83
2023/11/01 00:59:36;;;;;;;9.88;4.65;;;12.30;99.90;;;;;;5064297;28;20074;-83
2023/11/01 01:02:01;;;;;;;12.60;4.38;;;12.20;99.90;;;;;;5057529;28;20467;-83
2023/11/01 01:04:27;;;;;;;16.30;4.68;;;12.20;99.90;;;;;;5052041;28;20033;-82
2023/11/01 01:06:53;;;;;;;6.90;4.47;;;12.20;99.90;;;;;;5057246;28;20029;-83
2023/11/01 01:09:18;;;;;;;11.93;5.20;;;13.20;99.90;;;;;;5058724;28;20025;-83
2023/11/01 01:11:44;;;;;;;11.07;5.50;;;12.20;99.90;;;;;;5058232;28;20392;-83
2023/11/01 01:14:10;;;;;;;10.10;5.57;;;13.40;99.90;;;;;;5052296;28;20086;-83
2023/11/01 01:16:36;;;;;;;8.63;5.35;;;12.10;99.90;;;;;;5052287;28;20044;-83
2023/11/01 01:19:03;;;;;;;11.48;5.55;;;12.10;99.90;;;;;;5055303;28;20025;-83
2023/11/01 01:21:29;;;;;;;13.68;5.93;;;12.10;99.90;;;;;;5060390;28;20056;-83
2023/11/01 01:23:54;;;;;;;9.93;5.15;;;12.10;99.90;;;;;;5053185;28;20473;-83
2023/11/01 01:26:21;;;;;;;14.13;6.03;;;12.10;99.90;;;;;;5051874;28;20461;-83
2023/11/01 01:28:47;;;;;;;14.13;5.90;;;12.10;99.90;;;;;;5053774;28;20104;-83
2023/11/01 01:31:12;;;;;;;10.85;5.57;;;12.10;99.90;;;;;;5063923;28;20470;-83
2023/11/01 01:33:38;;;;;;;14.25;6.15;;;12.10;99.90;;;;;;5051929;28;20025;-82
2023/11/01 01:36:04;;;;;;;13.65;5.35;;;12.40;99.90;;;;;;5052984;28;20492;-83
2023/11/01 01:38:29;;;;;;;13.73;5.35;;;12.10;99.90;;;;;;5051463;28;20508;-83
2023/11/01 01:40:55;;;;;;;10.88;5.15;;;12.10;99.90;;;;;;5061324;28;20020;-82
2023/11/01 01:43:21;;;;;;;13.88;5.82;;;12.10;99.90;;;;;;5050875;28;20028;-83
2023/11/01 01:46:17;;;;;;;11.85;5.32;;;12.10;99.90;;;;;;5050396;28;20043;-82
2023/11/01 01:48:45;;;;;;;10.68;5.35;;;12.10;99.90;;;;;;5046825;28;20036;-83
2023/11/01 01:51:11;;;;;;;10.05;4.82;;;12.10;99.90;;;;;;5061683;28;20125;-81
2023/11/01 01:53:40;;;;;;;9.40;4.90;;;12.10;99.90;;;;;;5049799;28;20473;-83
2023/11/01 01:56:07;;;;;;;15.77;5.30;;;12.10;99.90;;;;;;5052755;28;20040;-83
2023/11/01 01:58:35;;;;;;;10.85;5.20;;;12.10;99.90;;;;;;5052060;28;20029;-83
2023/11/01 02:01:01;;;;;;;8.80;4.60;;;12.10;99.90;;;;;;5063543;28;20039;-83
2023/11/01 02:03:27;;;;;;;7.40;4.20;;;12.30;99.90;;;;;;5052397;28;20021;-83
2023/11/01 02:05:53;;;;;;;10.50;5.25;;;12.20;99.90;;;;;;5052263;28;20025;-83
2023/11/01 02:08:18;;;;;;;9.75;4.82;;;12.10;99.90;;;;;;5052130;28;20025;-83
2023/11/01 02:10:44;;;;;;;11.25;5.22;;;12.10;99.90;;;;;;5052370;28;20492;-83
2023/11/01 02:13:10;;;;;;;8.65;4.53;;;12.10;99.90;;;;;;5063182;28;20042;-83
2023/11/01 02:15:36;;;;;;;8.65;4.18;;;12.10;99.90;;;;;;5052711;28;20032;-83
2023/11/01 02:18:02;;;;;;;7.20;3.90;;;11.90;99.90;;;;;;5052005;28;20044;-83
2023/11/01 02:20:29;;;;;;;11.80;4.20;;;12.20;99.90;;;;;;5055907;28;20113;-83
2023/11/01 02:22:55;;;;;;;7.70;3.78;;;12.10;99.90;;;;;;5055939;28;20032;-83
2023/11/01 02:25:21;;;;;;;5.22;3.88;;;12.20;99.90;;;;;;5067409;28;20028;-83
2023/11/01 02:27:47;;;;;;;7.78;3.80;;;12.20;99.90;;;;;;5056028;28;20455;-83
2023/11/01 02:30:16;;;;;;;10.10;4.10;;;12.10;99.90;;;;;;5055722;28;20484;-83
2023/11/01 02:32:49;;;;;;;7.10;3.58;;;12.10;99.90;;;;;;5056206;28;20036;-83
2023/11/01 02:35:15;;;;;;;10.85;3.72;;;12.10;99.90;;;;;;5056148;28;20025;-84
2023/11/01 02:37:41;;;;;;;6.65;3.25;;;12.10;99.90;;;;;;5063041;28;20041;-83
2023/11/01 02:40:09;;;;;;;8.65;2.92;;;12.10;99.90;;;;;;5059336;28;20041;-83
2023/11/01 02:42:45;;;;;;;7.18;2.55;;;12.10;99.90;;;;;;5055478;28;20029;-83
2023/11/01 02:45:11;;;;;;;7.00;2.83;;;12.10;99.90;;;;;;5055261;28;20021;-83
2023/11/01 02:47:41;;;;;;;5.15;2.55;;;12.10;99.90;;;;;;5055287;28;20028;-83
2023/11/01 02:50:12;;;;;;;5.40;3.00;;;12.10;99.90;;;;;;5061212;28;20028;-83
2023/11/01 02:52:38;;;;;;;6.68;3.45;;;12.10;99.90;;;;;;5060508;28;20048;-83
2023/11/01 02:55:14;;;;;;;3.72;2.45;;;12.10;99.90;;;;;;5055929;28;20017;-83
2023/11/01 02:57:41;;;;;;;8.60;3.30;;;12.10;99.90;;;;;;5054566;28;20036;-82
2023/11/01 03:00:08;;;;;;;3.85;3.00;;;12.10;99.90;;;;;;5061580;28;20476;-83
2023/11/01 03:02:37;;;;;;;9.00;3.35;;;12.10;99.90;;;;;;5060921;28;20550;-83
2023/11/01 03:05:04;;;;;;;7.95;3.95;;;12.10;99.90;;;;;;5055127;28;20117;-82
2023/11/01 03:07:30;;;;;;;7.55;3.85;;;12.10;99.90;;;;;;5055467;28;20124;-83
2023/11/01 03:09:56;;;;;;;7.22;3.67;;;12.10;99.90;;;;;;5055687;28;20104;-83
2023/11/01 03:12:22;;;;;;;6.35;4.40;;;12.10;99.90;;;;;;5061655;28;20077;-83
2023/11/01 03:14:48;;;;;;;6.35;3.92;;;12.10;99.90;;;;;;5060380;28;20017;-83
2023/11/01 03:17:13;;;;;;;8.80;4.70;;;12.10;99.90;;;;;;5055213;28;20049;-83
2023/11/01 03:19:40;;;;;;;6.50;3.88;;;12.10;99.90;;;;;;5053899;28;20040;-83
2023/11/01 03:22:06;;;;;;;8.77;4.35;;;12.00;99.90;;;;;;5059922;28;20041;-82
2023/11/01 03:24:32;;;;;;;9.88;4.60;;;12.10;99.90;;;;;;5062074;28;20070;-83
2023/11/01 03:26:58;;;;;;;10.23;4.60;;;12.10;99.90;;;;;;5054400;28;20437;-83
2023/11/01 03:29:24;;;;;;;12.55;4.95;;;12.10;99.90;;;;;;5054384;28;20033;-83
2023/11/01 03:31:49;;;;;;;13.82;5.57;;;12.10;99.90;;;;;;5055094;28;20040;-82
2023/11/01 03:34:15;;;;;;;8.00;5.05;;;12.10;99.90;;;;;;5061543;28;20020;-83
2023/11/01 03:36:41;;;;;;;12.75;4.85;;;12.10;99.90;;;;;;5058897;28;20075;-83
2023/11/01 03:39:08;;;;;;;9.30;4.70;;;12.10;99.90;;;;;;5054120;28;20041;-82
2023/11/01 03:41:39;;;;;;;10.02;3.97;;;12.10;99.90;;;;;;5054762;28;20108;-83
2023/11/01 03:44:05;;;;;;;9.60;4.72;;;12.10;99.90;;;;;;5057353;28;20082;-83
2023/11/01 03:46:30;;;;;;;6.05;4.05;;;12.20;99.90;;;;;;5064550;28;20085;-83
2023/11/01 03:48:56;;;;;;;9.52;4.32;;;12.00;99.90;;;;;;5074720;28;20516;-82
2023/11/01 03:51:22;;;;;;;11.18;4.18;;;12.10;99.90;;;;;;5074347;28;20039;-82
2023/11/01 03:53:47;;;;;;;9.25;4.18;;;12.10;99.90;;;;;;5070208;28;20037;-82
2023/11/01 03:56:13;;;;;;;15.07;4.85;;;12.10;99.90;;;;;;5065008;28;20376;-83
2023/11/01 03:58:40;;;;;;;8.57;4.45;;;11.90;99.90;;;;;;5054023;28;20052;-82
2023/11/01 04:01:05;;;;;;;5.93;4.07;;;12.10;99.90;;;;;;5054024;28;20029;-83
2023/11/01 04:03:31;;;;;;;4.57;3.75;;;12.20;99.90;;;;;;5053768;28;20028;-83
2023/11/01 04:05:57;;;;;;;7.88;4.80;;;12.20;99.90;;;;;;5062906;28;20033;-83
2023/11/01 04:08:23;;;;;;;4.90;4.38;;;12.10;99.90;;;;;;5064129;28;20383;-82
2023/11/01 04:10:49;;;;;;;5.47;4.20;;;12.60;99.90;;;;;;5057673;28;20054;-82
2023/11/01 04:13:14;;;;;;;10.23;4.90;;;12.10;99.90;;;;;;5066207;28;20057;-83
2023/11/01 04:15:40;;;;;;;5.97;3.85;;;12.10;99.90;;;;;;5055650;28;20044;-83
2023/11/01 04:18:05;;;;;;;6.88;4.47;;;12.10;99.90;;;;;;5062718;28;20091;-83
2023/11/01 04:20:31;;;;;;;6.30;4.28;;;12.10;99.90;;;;;;5060853;28;20035;-83
2023/11/01 04:22:56;;;;;;;5.35;4.40;;;12.10;99.90;;;;;;5058825;28;20032;-83
2023/11/01 04:25:22;;;;;;;4.85;4.45;;;12.10;99.90;;;;;;5065358;28;20032;-83
2023/11/01 04:27:48;;;;;;;5.57;4.50;;;12.20;99.90;;;;;;5057232;28;20029;-82
2023/11/01 04:30:14;;;;;;;4.95;4.30;;;12.10;99.90;;;;;;5062042;28;20056;-83
2023/11/01 04:32:41;;;;;;;5.78;5.05;;;12.10;99.90;;;;;;5062462;28;20036;-82
2023/11/01 04:35:11;;;;;;;6.10;4.50;;;12.10;99.90;;;;;;5058181;28;20032;-82
2023/11/01 04:37:40;;;;;;;5.47;4.97;;;12.10;99.90;;;;;;5062113;28;20028;-82
2023/11/01 04:40:12;;;;;;;5.88;5.30;;;12.10;99.90;;;;;;5065586;28;20488;-82
2023/11/01 04:42:41;;;;;;;6.18;5.78;;;12.10;99.90;;;;;;5057330;28;20429;-82
2023/11/01 04:45:08;;;;;;;9.70;7.18;;;12.20;99.90;;;;;;5063862;28;20020;-82
2023/11/01 04:47:35;;;;;;;8.05;7.28;;;12.20;99.90;;;;;;5061333;28;20029;-82
2023/11/01 04:50:02;;;;;;;10.98;8.30;;;12.20;99.90;;;;;;5057732;28;20472;-82
2023/11/01 04:52:28;;;;;;;10.35;8.27;;;12.20;99.90;;;;;;5060041;28;20032;-83
2023/11/01 04:54:54;;;;;;;9.85;8.77;;;12.20;99.90;;;;;;5065099;28;20026;-82
2023/11/01 04:57:19;;;;;;;10.13;9.05;;;12.20;99.90;;;;;;5055760;28;20047;-84
2023/11/01 04:59:45;;;;;;;9.32;8.35;;;12.20;99.90;;;;;;5061754;28;20013;-84
2023/11/01 05:02:10;;;;;;;9.73;8.82;;;12.50;99.90;;;;;;5065652;28;20064;-85
2023/11/01 05:04:36;;;;;;;9.40;8.50;;;12.20;99.90;;;;;;5063385;28;20028;-84
2023/11/01 05:07:02;;;;;;;10.45;8.65;;;12.10;99.90;;;;;;5064415;28;20538;-83
2023/11/01 05:09:28;;;;;;;13.13;9.73;;;12.20;99.90;;;;;;5054942;28;20028;-82
2023/11/01 05:11:53;;;;;;;12.55;9.38;;;12.20;99.90;;;;;;5062562;28;20027;-83
2023/11/01 05:14:19;;;;;;;11.52;9.23;;;12.30;99.90;;;;;;5064538;28;20025;-83
2023/11/01 05:16:46;;;;;;;11.77;9.35;;;13.20;99.90;;;;;;5059534;28;20044;-84
2023/11/01 05:19:12;;;;;;;13.07;10.43;;;12.30;99.90;;;;;;5065260;28;20032;-84
2023/11/01 05:21:38;;;;;;;11.10;9.38;;;12.30;99.90;;;;;;5055547;28;20086;-83
2023/11/01 05:24:04;;;;;;;14.35;9.18;;;12.40;99.90;;;;;;5065210;28;20112;-83
2023/11/01 05:26:30;;;;;;;21.48;9.60;;;12.40;99.90;;;;;;5063809;28;20143;-84
2023/11/01 05:28:56;;;;;;;23.83;9.25;;;12.40;99.90;;;;;;5062287;28;20043;-83
2023/11/01 05:31:23;;;;;;;23.63;9.23;;;12.40;99.90;;;;;;5063811;28;20104;-83
2023/11/01 05:33:50;;;;;;;21.83;7.85;;;12.50;99.90;;;;;;5057563;28;20097;-82
2023/11/01 05:36:15;;;;;;;19.85;7.68;;;12.40;99.90;;;;;;5064498;28;20120;-83
2023/11/01 05:38:42;;;;;;;14.32;7.18;;;12.20;99.90;;;;;;5054581;28;20139;-83
2023/11/01 05:41:11;;;;;;;22.70;7.43;;;12.50;99.90;;;;;;5065887;28;20031;-83
2023/11/01 05:43:37;;;;;;;15.80;6.72;;;12.40;99.90;;;;;;5064072;28;20384;-83
2023/11/01 05:46:03;;;;;;;22.42;6.53;;;12.50;99.90;;;;;;5059383;28;20024;-83
2023/11/01 05:48:28;;;;;;;24.80;6.35;;;12.40;99.90;;;;;;5059475;28;20036;-82
2023/11/01 05:50:54;;;;;;;13.57;6.10;;;12.50;99.90;;;;;;5063309;28;20016;-83
2023/11/01 05:53:20;;;;;;;19.50;5.75;;;12.50;99.90;;;;;;5062080;28;20047;-83
2023/11/01 05:55:45;;;;;;;26.73;5.22;;;12.50;99.90;;;;;;5057518;28;20025;-88
2023/11/01 05:58:11;;;;;;;17.15;4.90;;;12.60;99.90;;;;;;5064112;28;20029;-83
2023/11/01 06:00:38;;;;;;;18.35;4.97;;;12.50;99.90;;;;;;5060780;28;20033;-82
2023/11/01 06:03:06;;;;;;;25.58;4.75;;;12.60;99.90;;;;;;5056352;28;20033;-84
2023/11/01 06:05:35;;;;;;;18.85;4.13;;;12.60;99.90;;;;;;5060112;28;20448;-84
2023/11/01 06:08:05;;;;;;;19.27;4.20;;;12.60;99.90;;;;;;5060684;28;20094;-84
2023/11/01 06:10:31;;;;;;;15.20;3.35;;;12.60;99.90;;;;;;5060839;28;20119;-84
2023/11/01 06:12:57;;;;;;;15.50;3.85;;;12.60;99.90;;;;;;5063998;28;20104;-84
2023/11/01 06:15:24;;;;;;;17.20;3.50;;;12.60;99.90;;;;;;5059339;28;20052;-83
2023/11/01 06:17:50;;;;;;;13.57;3.95;;;12.10;99.90;;;;;;5051647;28;20044;-84
2023/11/01 06:20:16;;;;;;;11.27;3.42;;;12.60;99.90;;;;;;5060494;28;20021;-84
2023/11/01 06:22:42;;;;;;;20.45;4.05;;;12.70;99.90;;;;;;5065390;28;20071;-84
2023/11/01 06:25:08;;;;;;;13.10;3.45;;;12.60;99.90;;;;;;5052886;28;20457;-83
2023/11/01 06:27:38;;;;;;;23.10;4.65;;;12.70;99.90;;;;;;5064399;28;20021;-84
2023/11/01 06:30:05;;;;;;;12.50;4.03;;;12.70;99.90;;;;;;5052751;28;20025;-84
2023/11/01 06:32:37;;;;;;;15.43;4.20;;;12.70;99.90;;;;;;5064608;28;20060;-83
2023/11/01 06:35:03;;;;;;;23.88;6.07;;;12.70;99.90;;;;;;5055147;28;20102;-84
2023/11/01 06:37:29;;;;;;;20.40;5.82;;;12.70;99.90;;;;;;5056204;28;20422;-84
2023/11/01 06:39:54;;;;;;;15.65;6.35;;;13.20;99.90;;;;;;5058255;28;20067;-84
2023/11/01 06:42:20;;;;;;;12.65;4.80;;;12.70;99.90;;;;;;5058054;28;20115;-84
2023/11/01 06:44:46;;;;;;;12.93;4.63;;;12.70;99.90;;;;;;5059442;28;20115;-84
2023/11/01 06:47:11;;;;;;;18.40;6.13;;;13.30;99.90;;;;;;5068027;28;20025;-84
2023/11/01 06:49:39;;;;;;;17.35;5.28;;;12.70;99.90;;;;;;5059198;28;20017;-84
2023/11/01 06:52:06;;;;;;;12.35;4.75;;;12.70;99.90;;;;;;5060177;28;20107;-84
2023/11/01 06:54:32;;;;;;;15.23;5.03;;;12.70;99.90;;;;;;5059821;28;20104;-84
2023/11/01 06:56:57;;;;;;;14.77;5.47;;;12.70;99.90;;;;;;5051118;28;20136;-84
2023/11/01 06:59:23;;;;;;;14.27;4.38;;;12.70;99.90;;;;;;5066241;28;20029;-84
2023/11/01 07:01:49;;;;;;;18.50;4.43;;;12.70;99.90;;;;;;5060216;28;20353;-84
2023/11/01 07:04:14;;;;;;;12.23;3.78;;;12.70;99.90;;;;;;5058765;28;20381;-83
2023/11/01 07:06:41;;;;;;;9.32;4.07;;;12.70;99.90;;;;;;5067350;28;20033;-84
2023/11/01 07:09:07;;;;;;;16.20;3.88;;;12.70;99.90;;;;;;5063571;28;20021;-83
2023/11/01 07:11:32;;;;;;;11.55;3.72;;;12.70;99.90;;;;;;5065144;28;20076;-84
2023/11/01 07:13:58;;;;;;;10.77;4.43;;;12.80;99.90;;;;;;5073822;28;20115;-84
2023/11/01 07:16:24;;;;;;;9.23;3.65;;;12.80;99.90;;;;;;5069969;28;20033;-83
2023/11/01 07:18:50;;;;;;;18.13;4.20;;;12.80;99.90;;;;;;5073635;28;20020;-84
2023/11/01 07:21:16;;;;;;;15.60;3.72;;;13.20;99.90;;;;;;5073246;28;20035;-84
2023/11/01 07:23:41;;;;;;;12.45;3.70;;;12.80;99.90;;;;;;5072887;28;20042;-84
2023/11/01 07:26:07;;;;;;;16.98;3.92;;;12.80;99.90;;;;;;5071382;28;20048;-83
2023/11/01 07:28:33;;;;;;;12.63;3.60;;;12.80;99.90;;;;;;5065253;28;20033;-84
2023/11/01 07:30:59;;;;;;;12.10;3.83;;;12.80;99.90;;;;;;5057400;28;20025;-84
2023/11/01 07:33:25;;;;;;;14.65;4.60;;;12.80;99.90;;;;;;5071836;28;20035;-84
2023/11/01 07:35:50;;;;;;;17.17;3.33;;;12.80;99.90;;;;;;5073991;28;20460;-83
2023/11/01 07:38:16;;;;;;;13.02;3.50;;;12.80;99.90;;;;;;5070960;28;20480;-91
2023/11/01 07:40:41;;;;;;;18.73;3.47;;;12.80;99.90;;;;;;5066180;28;20362;-88
2023/11/01 07:43:07;;;;;;;7.72;2.85;;;13.50;99.90;;;;;;5058192;28;20055;-88
2023/11/01 07:45:32;;;;;;;12.68;3.08;;;12.80;99.90;;;;;;5073609;28;20051;-86
2023/11/01 07:47:58;;;;;;;11.77;3.10;;;12.80;99.90;;;;;;5074012;28;20059;-87
2023/11/01 07:50:24;;;;;;;15.23;3.45;;;12.90;99.90;;;;;;5082033;28;20024;-87
2023/11/01 07:52:50;;;;;;;11.00;3.33;;;12.90;99.90;;;;;;5072414;28;20028;-86
2023/11/01 07:55:16;;;;;;;14.15;2.92;;;13.70;99.90;;;;;;5073829;28;20032;-88
2023/11/01 07:57:41;;;;;;;17.10;4.40;;;12.80;99.90;;;;;;5073686;28;20120;-86
2023/11/01 08:00:08;;;;;;;14.35;3.50;;;12.80;99.90;;;;;;5072523;28;20024;-88
2023/11/01 08:02:34;;;;;;;8.55;3.25;;;12.80;99.90;;;;;;5073850;28;20061;-87
2023/11/01 08:05:00;;;;;;;13.07;3.38;;;12.90;99.90;;;;;;5072393;28;20122;-86
2023/11/01 08:07:25;;;;;;;16.80;3.42;;;12.90;99.90;;;;;;5073150;28;20025;-85
2023/11/01 08:09:52;;;;;;;17.30;3.08;;;12.90;99.90;;;;;;5074100;28;20098;-85
2023/11/01 08:12:20;;;;;;;11.55;2.90;;;12.90;99.90;;;;;;5072177;28;20392;-84
2023/11/01 08:14:46;;;;;;;14.40;3.60;;;12.90;99.90;;;;;;5073587;28;20154;-84
2023/11/01 08:17:11;;;;;;;13.27;3.05;;;12.90;99.90;;;;;;5070682;28;20112;-84
2023/11/01 08:19:38;;;;;;;13.60;3.47;;;13.90;99.90;;;;;;5074071;28;20114;-85
2023/11/01 08:22:04;;;;;;;16.75;3.42;;;12.70;99.90;;;;;;5073324;28;20028;-86
2023/11/01 08:24:30;;;;;;;10.88;2.85;;;12.90;99.90;;;;;;5070860;28;20025;-85
2023/11/01 08:26:55;;;;;;;9.32;3.65;;;12.90;99.90;;;;;;5071376;28;20385;-85
2023/11/01 08:29:21;;;;;;;11.32;3.45;;;12.90;99.90;;;;;;5073639;28;20029;-82
2023/11/01 08:31:47;;;;;;;15.60;3.78;;;13.10;99.90;;;;;;5064227;28;20028;-82
2023/11/01 08:34:12;;;;;;;11.43;2.90;;;13.80;99.90;;;;;;5072854;28;20027;-83
2023/11/01 08:36:38;;;;;;;16.33;3.97;;;13.00;99.90;;;;;;5070703;28;20024;-84
2023/11/01 08:39:04;;;;;;;16.23;3.75;;;13.60;99.90;;;;;;5068167;28;20127;-88
2023/11/01 08:41:29;;;;;;;12.27;3.10;;;13.00;99.90;;;;;;5064011;28;20113;-87
2023/11/01 08:43:55;;;;;;;13.50;3.28;;;13.00;99.90;;;;;;5079801;28;20024;-87
2023/11/01 08:46:20;;;;;;;8.98;2.72;;;13.00;99.90;;;;;;5067148;28;20127;-90
2023/11/01 08:48:47;;;;;;;9.32;2.63;;;13.00;99.90;;;;;;5055796;28;20032;-85
2023/11/01 08:51:14;;;;;;;12.05;3.03;;;13.40;99.90;;;;;;5054542;28;20063;-88
2023/11/01 08:53:40;;;;;;;17.42;3.60;;;13.00;99.90;;;;;;5064649;28;20044;-90
2023/11/01 08:56:12;;;;;;;18.83;3.53;;;13.50;99.90;;;;;;5072182;28;22630;-89
2023/11/01 08:58:38;;;;;;;9.18;2.58;;;13.10;99.90;;;;;;5052709;28;20029;-87
2023/11/01 09:01:16;;;;;;;16.85;3.85;;;13.70;99.90;;;;;;5058409;28;20119;-90
2023/11/01 09:18:22;;;;;;;14.38;3.50;;;13.20;99.90;;;;;;4947171;28;20070;-91
2023/11/01 09:20:48;;;;;;;11.57;3.20;;;14.70;99.90;;;;;;4953245;28;20090;-87
2023/11/01 09:23:28;;;;;;;12.00;3.10;;;14.70;99.90;;;;;;4955746;28;20107;-87
2023/11/01 09:25:54;;;;;;;12.67;3.13;;;13.20;99.90;;;;;;4953626;29;20035;-82
2023/11/01 09:28:20;;;;;;;14.35;3.40;;;13.20;99.90;;;;;;4968186;28;20310;-82
2023/11/01 09:30:46;;;;;;;12.48;2.70;;;13.00;99.90;;;;;;4971980;28;20462;-82
2023/11/01 09:33:11;;;;;;;11.63;2.85;;;13.30;99.90;;;;;;4958144;28;20420;-83
2023/11/01 09:35:37;;;;;;;8.23;2.53;;;13.30;99.90;;;;;;4935488;29;20024;-83
2023/11/01 09:38:03;;;;;;;6.93;2.75;;;13.30;99.90;;;;;;4951218;28;20407;-83
2023/11/01 09:40:29;;;;;;;9.05;2.67;;;13.30;99.90;;;;;;4941057;29;20046;-82
2023/11/01 09:42:55;;;;;;;18.67;2.53;;;13.70;99.90;;;;;;4950655;29;20611;-82
2023/11/01 09:45:21;;;;;;;12.10;2.65;;;13.30;99.90;;;;;;4966854;28;20046;-82
2023/11/01 09:47:49;;;;;;;13.38;3.00;;;13.40;99.90;;;;;;4954455;28;20035;-83
2023/11/01 09:50:17;;;;;;;13.32;2.38;;;13.40;99.90;;;;;;4969802;28;20085;-83
2023/11/01 09:52:43;;;;;;;9.95;2.78;;;13.40;99.90;;;;;;4965723;28;20031;-82
2023/11/01 09:55:09;;;;;;;16.35;2.90;;;13.40;99.90;;;;;;4950551;28;20027;-82
2023/11/01 09:57:36;;;;;;;10.40;2.58;;;13.40;99.90;;;;;;4949694;28;20370;-82
2023/11/01 10:00:03;;;;;;;10.93;4.28;;;13.40;99.90;;;;;;4935456;28;20031;-81
2023/11/01 10:02:29;;;;;;;9.43;2.60;;;13.50;99.90;;;;;;4953834;28;20031;-82
2023/11/01 10:04:55;;;;;;;12.13;2.35;;;13.60;99.90;;;;;;4935892;28;20379;-82
2023/11/01 10:07:21;;;;;;;17.88;2.83;;;13.50;99.90;;;;;;4953144;28;20035;-82
2023/11/01 10:09:47;;;;;;;8.13;2.08;;;13.70;99.90;;;;;;4941793;29;20106;-83
2023/11/01 10:12:13;;;;;;;10.23;3.25;;;13.50;99.90;;;;;;4947542;28;20035;-84
2023/11/01 10:14:39;;;;;;;5.72;1.90;;;13.30;99.90;;;;;;4947967;29;20571;-91
2023/11/01 10:17:04;;;;;;;13.10;2.65;;;13.50;99.90;;;;;;4951050;28;21184;-84
2023/11/01 10:19:30;;;;;;;12.98;2.30;;;13.50;99.90;;;;;;4954502;28;20392;-83
2023/11/01 10:21:57;;;;;;;11.98;3.58;;;13.30;99.90;;;;;;4953687;28;20027;-85
2023/11/01 10:24:25;;;;;;;7.35;2.40;;;13.50;99.90;;;;;;4955124;28;20577;-83
2023/11/01 10:26:55;;;;;;;10.60;2.75;;;13.50;99.90;;;;;;4953976;28;20051;-84
2023/11/01 10:29:27;;;;;;;12.00;3.05;;;13.60;99.90;;;;;;4953611;28;20024;-84
2023/11/01 10:31:58;;;;;;;14.25;2.38;;;13.60;99.90;;;;;;4961020;28;20502;-89
2023/11/01 10:34:31;;;;;;;11.88;2.35;;;13.60;99.90;;;;;;4958010;28;20027;-89
2023/11/01 10:36:58;;;;;;;8.20;1.70;;;13.60;99.90;;;;;;4955499;28;20032;-83
2023/11/01 10:39:25;;;;;;;13.75;3.20;;;13.60;99.90;;;;;;4954237;28;20045;-83
2023/11/01 10:41:55;;;;;;;13.05;2.20;;;13.60;99.90;;;;;;4957083;28;20495;-84
2023/11/01 10:44:21;;;;;;;7.88;2.25;;;13.60;99.90;;;;;;4957127;28;20404;-84
2023/11/01 10:46:48;;;;;;;7.18;2.17;;;13.80;99.90;;;;;;4957594;28;20059;-84
2023/11/01 10:49:15;;;;;;;7.03;2.38;;;13.60;99.90;;;;;;4956926;28;20484;-83
2023/11/01 10:51:41;;;;;;;11.82;2.33;;;13.80;99.90;;;;;;4957632;28;20122;-83
2023/11/01 10:54:10;;;;;;;10.93;2.78;;;13.60;99.90;;;;;;4957380;28;20031;-83
2023/11/01 10:56:36;;;;;;;11.15;2.60;;;13.60;99.90;;;;;;4956604;28;20082;-83
2023/11/01 10:59:29;;;;;;;6.97;2.30;;;14.00;99.90;;;;;;4957387;28;20467;-83
2023/11/01 11:02:07;;;;;;;12.00;2.42;;;13.70;99.90;;;;;;4957542;28;20024;-85
2023/11/01 11:04:58;;;;;;;15.15;2.28;;;13.70;99.90;;;;;;4956975;28;20078;-84
2023/11/01 11:07:42;;;;;;;11.57;2.08;;;13.70;99.90;;;;;;4957207;28;20071;-84
2023/11/01 11:10:29;;;;;;;9.82;2.30;;;13.70;99.90;;;;;;4957256;28;20063;-84
2023/11/01 11:13:16;;;;;;;10.38;2.40;;;13.80;99.90;;;;;;4957657;28;20035;-84
2023/11/01 11:15:51;;;;;;;9.20;2.42;;;13.80;99.90;;;;;;4956692;28;20047;-84
2023/11/01 11:18:23;;;;;;;9.77;2.10;;;13.80;99.90;;;;;;4956445;28;20492;-85
2023/11/01 11:20:50;;;;;;;4.90;1.80;;;13.80;99.90;;;;;;4957110;28;20082;-84
2023/11/01 11:23:17;;;;;;;17.25;2.33;;;13.90;99.90;;;;;;4957012;28;20027;-83
2023/11/01 11:25:48;;;;;;;9.57;2.55;;;13.90;99.90;;;;;;4962097;28;20027;-87
2023/11/01 11:28:14;;;;;;;11.00;2.22;;;13.90;99.90;;;;;;4958900;28;20487;-84
2023/11/01 11:31:04;;;;;;;8.50;2.42;;;14.00;99.90;;;;;;4956312;28;20159;-83
2023/11/01 11:33:33;;;;;;;14.07;2.42;;;14.00;99.90;;;;;;4956850;28;20039;-83
2023/11/01 11:36:18;;;;;;;7.95;2.08;;;14.00;99.90;;;;;;4956849;28;20047;-83
2023/11/01 11:38:47;;;;;;;9.52;2.30;;;14.10;99.90;;;;;;4955884;29;20049;-83
2023/11/01 11:41:23;;;;;;;6.00;2.03;;;14.10;99.90;;;;;;4954550;29;20117;-83
2023/11/01 11:44:04;;;;;;;12.80;2.85;;;14.10;99.90;;;;;;4956733;28;20035;-84
2023/11/01 11:46:34;;;;;;;;;;;14.20;99.90;;;;;;4956232;28;20461;-84
2023/11/01 11:49:02;;;;;;;7.68;1.80;;;14.20;99.90;;;;;;4956296;28;19910;-83
2023/11/01 11:51:29;;;;;;;8.85;1.67;;;14.30;99.90;;;;;;4955128;28;20039;-82
2023/11/01 11:53:55;;;;;;;9.93;1.70;;;14.20;99.90;;;;;;4956027;28;20501;-83
2023/11/01 11:56:21;;;;;;;10.77;2.65;;;14.30;99.90;;;;;;4955695;28;20055;-82
2023/11/01 11:58:47;;;;;;;4.80;2.17;;;14.20;99.90;;;;;;4955638;28;20086;-86
2023/11/01 12:01:28;;;;;;;7.05;2.03;;;14.30;99.90;;;;;;4956787;28;20102;-83
2023/11/01 12:03:58;;;;;;;7.38;2.15;;;14.30;99.90;;;;;;4956334;29;20395;-82
2023/11/01 12:06:24;;;;;;;7.47;1.95;;;14.40;99.90;;;;;;4955522;28;20088;-82
2023/11/01 12:08:50;;;;;;;5.63;2.05;;;14.40;99.90;;;;;;4956514;28;20264;-83
2023/11/01 12:11:16;;;;;;;8.60;1.90;;;14.40;99.90;;;;;;4956622;28;20082;-83
2023/11/01 12:13:44;;;;;;;8.57;2.08;;;15.10;99.90;;;;;;4955490;28;20023;-82
2023/11/01 12:16:30;;;;;;;6.68;2.42;;;14.50;99.90;;;;;;4955957;28;20603;-82
2023/11/01 12:19:18;;;;;;;10.55;3.17;;;14.50;99.90;;;;;;4955612;28;20119;-82
2023/11/01 12:21:53;;;;;;;11.73;2.08;;;14.50;99.90;;;;;;4955413;28;20027;-82
2023/11/01 12:24:26;;;;;;;9.15;2.00;;;14.60;99.90;;;;;;4956252;28;20106;-82
2023/11/01 12:26:55;;;;;;;6.45;1.92;;;14.60;99.90;;;;;;4955198;28;20030;-84
2023/11/01 12:29:20;;;;;;;9.07;2.33;;;14.50;99.90;;;;;;4955439;29;20403;-84
2023/11/01 12:32:05;;;;;;;7.97;1.92;;;14.60;99.90;;;;;;4955779;29;20030;-83
2023/11/01 12:34:39;;;;;;;8.25;1.90;;;14.60;99.90;;;;;;4955069;28;20056;-84
2023/11/01 12:37:12;;;;;;;3.25;1.83;;;14.70;99.90;;;;;;4955990;28;20035;-84
2023/11/01 12:39:41;;;;;;;6.78;2.00;;;14.60;99.90;;;;;;4955490;28;20027;-84
2023/11/01 12:42:20;;;;;;;6.60;2.25;;;14.60;99.90;;;;;;4955144;28;20034;-84
2023/11/01 12:44:47;;;;;;;8.75;2.17;;;14.70;99.90;;;;;;4955526;28;20029;-84
2023/11/01 12:47:13;;;;;;;7.03;1.88;;;15.20;99.90;;;;;;4955783;28;20090;-83
2023/11/01 12:49:41;;;;;;;5.65;1.83;;;15.20;99.90;;;;;;4954388;29;20472;-84
2023/11/01 12:52:08;;;;;;;5.82;1.67;;;14.80;99.90;;;;;;4955697;29;20027;-84
2023/11/01 12:54:34;;;;;;;7.18;1.67;;;14.90;99.90;;;;;;4955153;28;20045;-83
2023/11/01 12:57:00;;;;;;;5.50;2.15;;;15.50;99.90;;;;;;4954740;28;20211;-84